sensor_id;sensor_type;location;lat;lon;timestamp;P1;durP1;ratioP1;P2;durP2;ratioP2
35971;SDS011;22052;0.000;0.000;2023-08-01T00:02:19;3.80;;;1.00;;
35971;SDS011;22052;0.000;0.000;2023-08-01T00:04:45;2.80;;;0.93;;
35971;SDS011;22052;0.000;0.000;2023-08-01T00:07:11;2.47;;;0.88;;
35971;SDS011;22052;0.000;0.000;2023-08-01T00:09:37;2.85;;;0.80;;
35971;SDS011;22052;0.000;0.000;2023-08-01T00:12:03;1.73;;;0.85;;
35971;SDS011;22052;0.000;0.000;2023-08-01T00:14:30;2.33;;;1.05;;
35971;SDS011;22052;0.000;0.000;2023-08-01T00:16:56;2.70;;;1.00;;
35971;SDS011;22052;0.000;0.000;2023-08-01T00:19:22;2.25;;;0.85;;
35971;SDS011;22052;0.000;0.000;2023-08-01T00:21:48;1.58;;;0.85;;
35971;SDS011;22052;0.000;0.000;2023-08-01T00:24:14;1.90;;;0.90;;
35971;SDS011;22052;0.000;0.000;2023-08-01T00:26:40;2.63;;;1.00;;
35971;SDS011;22052;0.000;0.000;2023-08-01T00:29:06;4.65;;;1.08;;
35971;SDS011;22052;0.000;0.000;2023-08-01T00:31:33;1.00;;;0.70;;
35971;SDS011;22052;0.000;0.000;2023-08-01T00:33:59;2.03;;;0.82;;
35971;SDS011;22052;0.000;0.000;2023-08-01T00:36:25;2.42;;;0.82;;
35971;SDS011;22052;0.000;0.000;2023-08-01T00:38:51;2.17;;;0.90;;
35971;SDS011;22052;0.000;0.000;2023-08-01T00:41:17;3.47;;;1.00;;
35971;SDS011;22052;0.000;0.000;2023-08-01T00:43:43;2.97;;;0.85;;
35971;SDS011;22052;0.000;0.000;2023-08-01T00:46:09;2.22;;;0.80;;
35971;SDS011;22052;0.000;0.000;2023-08-01T00:48:36;2.55;;;0.70;;
35971;SDS011;22052;0.000;0.000;2023-08-01T00:51:05;1.20;;;0.70;;
35971;SDS011;22052;0.000;0.000;2023-08-01T00:53:33;1.83;;;0.90;;
35971;SDS011;22052;0.000;0.000;2023-08-01T00:56:00;1.60;;;0.73;;
35971;SDS011;22052;0.000;0.000;2023-08-01T00:58:26;2.40;;;0.82;;
35971;SDS011;22052;0.000;0.000;2023-08-01T01:00:52;2.40;;;0.90;;
35971;SDS011;22052;0.000;0.000;2023-08-01T01:03:20;1.80;;;0.70;;
35971;SDS011;22052;0.000;0.000;2023-08-01T01:05:49;2.15;;;0.70;;
35971;SDS011;22052;0.000;0.000;2023-08-01T01:08:18;3.03;;;0.90;;
35971;SDS011;22052;0.000;0.000;2023-08-01T01:10:44;3.55;;;0.93;;
35971;SDS011;22052;0.000;0.000;2023-08-01T01:13:10;1.30;;;0.52;;
35971;SDS011;22052;0.000;0.000;2023-08-01T01:15:36;3.85;;;0.95;;
35971;SDS011;22052;0.000;0.000;2023-08-01T01:18:02;2.72;;;1.10;;
35971;SDS011;22052;0.000;0.000;2023-08-01T01:20:35;1.33;;;0.70;;
35971;SDS011;22052;0.000;0.000;2023-08-01T01:23:03;1.52;;;0.80;;
35971;SDS011;22052;0.000;0.000;2023-08-01T01:25:29;1.77;;;0.90;;
35971;SDS011;22052;0.000;0.000;2023-08-01T01:27:56;1.60;;;1.00;;
35971;SDS011;22052;0.000;0.000;2023-08-01T01:30:23;2.15;;;0.73;;
35971;SDS011;22052;0.000;0.000;2023-08-01T01:32:50;1.52;;;0.60;;
35971;SDS011;22052;0.000;0.000;2023-08-01T01:35:16;2.17;;;0.82;;
35971;SDS011;22052;0.000;0.000;2023-08-01T01:37:42;1.75;;;0.90;;
35971;SDS011;22052;0.000;0.000;2023-08-01T01:40:09;0.90;;;0.65;;
35971;SDS011;22052;0.000;0.000;2023-08-01T01:42:35;0.90;;;0.68;;
35971;SDS011;22052;0.000;0.000;2023-08-01T01:45:01;1.50;;;0.68;;
35971;SDS011;22052;0.000;0.000;2023-08-01T01:47:27;2.75;;;0.60;;
35971;SDS011;22052;0.000;0.000;2023-08-01T01:49:53;1.90;;;0.70;;
35971;SDS011;22052;0.000;0.000;2023-08-01T01:52:19;2.25;;;0.80;;
35971;SDS011;22052;0.000;0.000;2023-08-01T01:54:45;1.65;;;0.77;;
35971;SDS011;22052;0.000;0.000;2023-08-01T01:57:11;1.40;;;0.70;;
35971;SDS011;22052;0.000;0.000;2023-08-01T01:59:38;1.63;;;0.73;;
35971;SDS011;22052;0.000;0.000;2023-08-01T02:02:04;1.60;;;0.70;;
35971;SDS011;22052;0.000;0.000;2023-08-01T02:04:30;2.22;;;0.98;;
35971;SDS011;22052;0.000;0.000;2023-08-01T02:06:56;0.98;;;0.80;;
35971;SDS011;22052;0.000;0.000;2023-08-01T02:09:22;1.98;;;0.88;;
35971;SDS011;22052;0.000;0.000;2023-08-01T02:11:48;1.08;;;0.73;;
35971;SDS011;22052;0.000;0.000;2023-08-01T02:14:14;0.88;;;0.57;;
35971;SDS011;22052;0.000;0.000;2023-08-01T02:16:41;1.92;;;0.70;;
35971;SDS011;22052;0.000;0.000;2023-08-01T02:19:07;2.42;;;0.82;;
35971;SDS011;22052;0.000;0.000;2023-08-01T02:21:33;0.60;;;0.50;;
35971;SDS011;22052;0.000;0.000;2023-08-01T02:23:59;1.83;;;0.70;;
35971;SDS011;22052;0.000;0.000;2023-08-01T02:26:25;0.90;;;0.55;;
35971;SDS011;22052;0.000;0.000;2023-08-01T02:28:51;1.88;;;0.70;;
35971;SDS011;22052;0.000;0.000;2023-08-01T02:31:17;0.85;;;0.60;;
35971;SDS011;22052;0.000;0.000;2023-08-01T02:33:43;0.85;;;0.70;;
35971;SDS011;22052;0.000;0.000;2023-08-01T02:36:09;1.55;;;0.70;;
35971;SDS011;22052;0.000;0.000;2023-08-01T02:38:35;1.55;;;0.75;;
35971;SDS011;22052;0.000;0.000;2023-08-01T02:41:01;1.05;;;0.70;;
35971;SDS011;22052;0.000;0.000;2023-08-01T02:43:28;1.10;;;0.70;;
35971;SDS011;22052;0.000;0.000;2023-08-01T02:45:54;1.08;;;0.60;;
35971;SDS011;22052;0.000;0.000;2023-08-01T02:48:20;1.77;;;0.80;;
35971;SDS011;22052;0.000;0.000;2023-08-01T02:50:46;1.33;;;0.70;;
35971;SDS011;22052;0.000;0.000;2023-08-01T02:53:12;1.13;;;0.60;;
35971;SDS011;22052;0.000;0.000;2023-08-01T02:55:39;1.80;;;0.70;;
35971;SDS011;22052;0.000;0.000;2023-08-01T02:58:05;2.17;;;0.60;;
35971;SDS011;22052;0.000;0.000;2023-08-01T03:00:31;1.30;;;0.75;;
35971;SDS011;22052;0.000;0.000;2023-08-01T03:02:57;1.05;;;0.50;;
35971;SDS011;22052;0.000;0.000;2023-08-01T03:05:23;1.00;;;0.70;;
35971;SDS011;22052;0.000;0.000;2023-08-01T03:07:49;1.70;;;0.80;;
35971;SDS011;22052;0.000;0.000;2023-08-01T03:10:15;1.15;;;0.73;;
35971;SDS011;22052;0.000;0.000;2023-08-01T03:12:41;0.85;;;0.63;;
35971;SDS011;22052;0.000;0.000;2023-08-01T03:15:07;1.10;;;0.60;;
35971;SDS011;22052;0.000;0.000;2023-08-01T03:17:34;1.13;;;0.73;;
35971;SDS011;22052;0.000;0.000;2023-08-01T03:20:00;1.70;;;0.70;;
35971;SDS011;22052;0.000;0.000;2023-08-01T03:22:26;1.63;;;0.77;;
35971;SDS011;22052;0.000;0.000;2023-08-01T03:24:52;0.80;;;0.57;;
35971;SDS011;22052;0.000;0.000;2023-08-01T03:27:18;1.35;;;0.70;;
35971;SDS011;22052;0.000;0.000;2023-08-01T03:29:44;1.65;;;0.50;;
35971;SDS011;22052;0.000;0.000;2023-08-01T03:32:11;1.30;;;0.70;;
35971;SDS011;22052;0.000;0.000;2023-08-01T03:34:37;0.93;;;0.60;;
35971;SDS011;22052;0.000;0.000;2023-08-01T03:37:04;1.27;;;0.73;;
35971;SDS011;22052;0.000;0.000;2023-08-01T03:39:30;0.60;;;0.60;;
35971;SDS011;22052;0.000;0.000;2023-08-01T03:41:56;1.45;;;0.70;;
35971;SDS011;22052;0.000;0.000;2023-08-01T03:44:22;1.88;;;0.70;;
35971;SDS011;22052;0.000;0.000;2023-08-01T03:46:48;1.13;;;0.70;;
35971;SDS011;22052;0.000;0.000;2023-08-01T03:49:15;1.38;;;0.63;;
35971;SDS011;22052;0.000;0.000;2023-08-01T03:51:41;1.58;;;0.68;;
35971;SDS011;22052;0.000;0.000;2023-08-01T03:54:07;0.80;;;0.68;;
35971;SDS011;22052;0.000;0.000;2023-08-01T03:56:33;1.55;;;0.70;;
35971;SDS011;22052;0.000;0.000;2023-08-01T03:58:59;2.72;;;0.80;;
35971;SDS011;22052;0.000;0.000;2023-08-01T04:01:25;1.85;;;0.80;;
35971;SDS011;22052;0.000;0.000;2023-08-01T04:03:51;1.17;;;0.80;;
35971;SDS011;22052;0.000;0.000;2023-08-01T04:06:18;1.50;;;0.80;;
35971;SDS011;22052;0.000;0.000;2023-08-01T04:08:44;1.65;;;0.70;;
35971;SDS011;22052;0.000;0.000;2023-08-01T04:11:10;1.50;;;0.75;;
35971;SDS011;22052;0.000;0.000;2023-08-01T04:13:36;1.70;;;0.68;;
35971;SDS011;22052;0.000;0.000;2023-08-01T04:16:02;2.47;;;0.90;;
35971;SDS011;22052;0.000;0.000;2023-08-01T04:18:28;1.10;;;0.70;;
35971;SDS011;22052;0.000;0.000;2023-08-01T04:20:54;1.02;;;0.70;;
35971;SDS011;22052;0.000;0.000;2023-08-01T04:23:21;0.68;;;0.65;;
35971;SDS011;22052;0.000;0.000;2023-08-01T04:25:47;1.98;;;0.63;;
35971;SDS011;22052;0.000;0.000;2023-08-01T04:28:13;1.20;;;0.80;;
35971;SDS011;22052;0.000;0.000;2023-08-01T04:30:39;3.28;;;0.90;;
35971;SDS011;22052;0.000;0.000;2023-08-01T04:33:05;1.52;;;0.70;;
35971;SDS011;22052;0.000;0.000;2023-08-01T04:35:31;0.75;;;0.60;;
35971;SDS011;22052;0.000;0.000;2023-08-01T04:37:57;2.03;;;0.77;;
35971;SDS011;22052;0.000;0.000;2023-08-01T04:40:23;1.80;;;0.85;;
35971;SDS011;22052;0.000;0.000;2023-08-01T04:42:49;0.85;;;0.70;;
35971;SDS011;22052;0.000;0.000;2023-08-01T04:45:16;2.13;;;0.63;;
35971;SDS011;22052;0.000;0.000;2023-08-01T04:47:42;0.88;;;0.68;;
35971;SDS011;22052;0.000;0.000;2023-08-01T04:50:08;1.23;;;0.90;;
35971;SDS011;22052;0.000;0.000;2023-08-01T04:52:35;0.95;;;0.65;;
35971;SDS011;22052;0.000;0.000;2023-08-01T04:55:01;1.27;;;0.98;;
35971;SDS011;22052;0.000;0.000;2023-08-01T04:57:28;2.90;;;0.70;;
35971;SDS011;22052;0.000;0.000;2023-08-01T04:59:55;2.28;;;0.90;;
35971;SDS011;22052;0.000;0.000;2023-08-01T05:02:21;1.27;;;0.65;;
35971;SDS011;22052;0.000;0.000;2023-08-01T05:04:47;1.80;;;1.00;;
35971;SDS011;22052;0.000;0.000;2023-08-01T05:07:13;1.58;;;0.68;;
35971;SDS011;22052;0.000;0.000;2023-08-01T05:09:39;1.70;;;0.82;;
35971;SDS011;22052;0.000;0.000;2023-08-01T05:12:05;1.05;;;0.65;;
35971;SDS011;22052;0.000;0.000;2023-08-01T05:14:32;1.25;;;0.68;;
35971;SDS011;22052;0.000;0.000;2023-08-01T05:16:58;2.22;;;0.80;;
35971;SDS011;22052;0.000;0.000;2023-08-01T05:19:24;4.30;;;0.70;;
35971;SDS011;22052;0.000;0.000;2023-08-01T05:21:50;2.85;;;0.80;;
35971;SDS011;22052;0.000;0.000;2023-08-01T05:24:16;2.67;;;0.70;;
35971;SDS011;22052;0.000;0.000;2023-08-01T05:26:42;3.05;;;0.95;;
35971;SDS011;22052;0.000;0.000;2023-08-01T05:29:08;1.67;;;0.60;;
35971;SDS011;22052;0.000;0.000;2023-08-01T05:31:34;3.40;;;0.90;;
35971;SDS011;22052;0.000;0.000;2023-08-01T05:34:01;1.60;;;0.70;;
35971;SDS011;22052;0.000;0.000;2023-08-01T05:36:27;2.55;;;0.85;;
35971;SDS011;22052;0.000;0.000;2023-08-01T05:38:53;1.08;;;0.70;;
35971;SDS011;22052;0.000;0.000;2023-08-01T05:41:19;2.20;;;0.65;;
35971;SDS011;22052;0.000;0.000;2023-08-01T05:43:46;3.47;;;0.90;;
35971;SDS011;22052;0.000;0.000;2023-08-01T05:46:13;2.20;;;0.73;;
35971;SDS011;22052;0.000;0.000;2023-08-01T05:48:39;3.70;;;0.80;;
35971;SDS011;22052;0.000;0.000;2023-08-01T05:51:05;1.83;;;0.77;;
35971;SDS011;22052;0.000;0.000;2023-08-01T05:53:31;2.88;;;0.60;;
35971;SDS011;22052;0.000;0.000;2023-08-01T05:55:57;2.25;;;0.73;;
35971;SDS011;22052;0.000;0.000;2023-08-01T05:58:23;1.38;;;0.55;;
35971;SDS011;22052;0.000;0.000;2023-08-01T06:00:49;2.10;;;0.95;;
35971;SDS011;22052;0.000;0.000;2023-08-01T06:03:16;1.33;;;0.60;;
35971;SDS011;22052;0.000;0.000;2023-08-01T06:05:42;3.20;;;0.80;;
35971;SDS011;22052;0.000;0.000;2023-08-01T06:08:08;1.92;;;0.90;;
35971;SDS011;22052;0.000;0.000;2023-08-01T06:10:35;2.22;;;0.80;;
35971;SDS011;22052;0.000;0.000;2023-08-01T06:13:01;2.60;;;0.90;;
35971;SDS011;22052;0.000;0.000;2023-08-01T06:15:28;2.58;;;1.00;;
35971;SDS011;22052;0.000;0.000;2023-08-01T06:17:54;2.58;;;1.00;;
35971;SDS011;22052;0.000;0.000;2023-08-01T06:20:20;3.13;;;0.80;;
35971;SDS011;22052;0.000;0.000;2023-08-01T06:22:46;2.60;;;1.13;;
35971;SDS011;22052;0.000;0.000;2023-08-01T06:25:12;1.75;;;0.70;;
35971;SDS011;22052;0.000;0.000;2023-08-01T06:27:38;4.03;;;0.75;;
35971;SDS011;22052;0.000;0.000;2023-08-01T06:30:04;2.65;;;0.82;;
35971;SDS011;22052;0.000;0.000;2023-08-01T06:32:31;4.45;;;1.02;;
35971;SDS011;22052;0.000;0.000;2023-08-01T06:34:57;2.80;;;0.90;;
35971;SDS011;22052;0.000;0.000;2023-08-01T06:37:23;2.17;;;0.70;;
35971;SDS011;22052;0.000;0.000;2023-08-01T06:39:49;1.63;;;0.80;;
35971;SDS011;22052;0.000;0.000;2023-08-01T06:42:15;2.40;;;0.85;;
35971;SDS011;22052;0.000;0.000;2023-08-01T06:44:41;1.65;;;1.13;;
35971;SDS011;22052;0.000;0.000;2023-08-01T06:47:08;4.03;;;1.00;;
35971;SDS011;22052;0.000;0.000;2023-08-01T06:49:34;4.72;;;0.90;;
35971;SDS011;22052;0.000;0.000;2023-08-01T06:52:00;7.07;;;0.82;;
35971;SDS011;22052;0.000;0.000;2023-08-01T06:54:26;3.38;;;0.93;;
35971;SDS011;22052;0.000;0.000;2023-08-01T06:56:52;3.80;;;0.93;;
35971;SDS011;22052;0.000;0.000;2023-08-01T06:59:18;2.97;;;0.98;;
35971;SDS011;22052;0.000;0.000;2023-08-01T07:01:44;2.03;;;0.80;;
35971;SDS011;22052;0.000;0.000;2023-08-01T07:04:10;3.33;;;1.00;;
35971;SDS011;22052;0.000;0.000;2023-08-01T07:06:37;3.45;;;0.90;;
35971;SDS011;22052;0.000;0.000;2023-08-01T07:09:03;3.50;;;0.77;;
35971;SDS011;22052;0.000;0.000;2023-08-01T07:11:29;4.18;;;1.00;;
35971;SDS011;22052;0.000;0.000;2023-08-01T07:13:55;2.53;;;0.85;;
35971;SDS011;22052;0.000;0.000;2023-08-01T07:16:21;3.10;;;0.98;;
35971;SDS011;22052;0.000;0.000;2023-08-01T07:18:47;4.03;;;0.98;;
35971;SDS011;22052;0.000;0.000;2023-08-01T07:21:15;1.70;;;0.90;;
35971;SDS011;22052;0.000;0.000;2023-08-01T07:23:41;5.72;;;0.90;;
35971;SDS011;22052;0.000;0.000;2023-08-01T07:26:08;3.22;;;1.00;;
35971;SDS011;22052;0.000;0.000;2023-08-01T07:28:34;2.42;;;0.82;;
35971;SDS011;22052;0.000;0.000;2023-08-01T07:31:09;4.18;;;1.35;;
35971;SDS011;22052;0.000;0.000;2023-08-01T07:33:35;1.85;;;0.80;;
35971;SDS011;22052;0.000;0.000;2023-08-01T07:36:02;2.45;;;0.98;;
35971;SDS011;22052;0.000;0.000;2023-08-01T07:38:28;2.80;;;1.05;;
35971;SDS011;22052;0.000;0.000;2023-08-01T07:40:57;3.67;;;0.98;;
35971;SDS011;22052;0.000;0.000;2023-08-01T07:43:23;3.33;;;0.90;;
35971;SDS011;22052;0.000;0.000;2023-08-01T07:45:49;3.40;;;1.02;;
35971;SDS011;22052;0.000;0.000;2023-08-01T07:48:15;2.60;;;1.10;;
35971;SDS011;22052;0.000;0.000;2023-08-01T07:50:42;4.38;;;1.05;;
35971;SDS011;22052;0.000;0.000;2023-08-01T07:53:08;9.18;;;1.17;;
35971;SDS011;22052;0.000;0.000;2023-08-01T07:55:34;5.03;;;1.10;;
35971;SDS011;22052;0.000;0.000;2023-08-01T07:58:00;3.50;;;0.90;;
35971;SDS011;22052;0.000;0.000;2023-08-01T08:00:26;4.95;;;1.05;;
35971;SDS011;22052;0.000;0.000;2023-08-01T08:02:53;4.07;;;0.93;;
35971;SDS011;22052;0.000;0.000;2023-08-01T08:05:19;2.50;;;1.00;;
35971;SDS011;22052;0.000;0.000;2023-08-01T08:07:45;5.03;;;1.13;;
35971;SDS011;22052;0.000;0.000;2023-08-01T08:10:12;4.43;;;0.98;;
35971;SDS011;22052;0.000;0.000;2023-08-01T08:12:39;4.30;;;1.10;;
35971;SDS011;22052;0.000;0.000;2023-08-01T08:15:05;6.30;;;1.17;;
35971;SDS011;22052;0.000;0.000;2023-08-01T08:17:31;5.13;;;1.10;;
35971;SDS011;22052;0.000;0.000;2023-08-01T08:19:58;6.28;;;1.20;;
35971;SDS011;22052;0.000;0.000;2023-08-01T08:22:24;7.90;;;1.40;;
35971;SDS011;22052;0.000;0.000;2023-08-01T08:24:50;1.88;;;0.90;;
35971;SDS011;22052;0.000;0.000;2023-08-01T08:27:16;6.32;;;1.30;;
35971;SDS011;22052;0.000;0.000;2023-08-01T08:29:42;8.68;;;1.33;;
35971;SDS011;22052;0.000;0.000;2023-08-01T08:32:08;3.88;;;1.17;;
35971;SDS011;22052;0.000;0.000;2023-08-01T08:34:34;2.75;;;0.90;;
35971;SDS011;22052;0.000;0.000;2023-08-01T08:37:00;3.95;;;1.05;;
35971;SDS011;22052;0.000;0.000;2023-08-01T08:39:27;2.65;;;0.80;;
35971;SDS011;22052;0.000;0.000;2023-08-01T08:41:53;4.57;;;1.08;;
35971;SDS011;22052;0.000;0.000;2023-08-01T08:44:19;2.80;;;0.82;;
35971;SDS011;22052;0.000;0.000;2023-08-01T08:46:50;3.92;;;0.95;;
35971;SDS011;22052;0.000;0.000;2023-08-01T08:49:17;6.47;;;0.93;;
35971;SDS011;22052;0.000;0.000;2023-08-01T08:51:45;5.53;;;1.20;;
35971;SDS011;22052;0.000;0.000;2023-08-01T08:54:11;2.72;;;0.93;;
35971;SDS011;22052;0.000;0.000;2023-08-01T08:56:38;2.63;;;0.90;;
35971;SDS011;22052;0.000;0.000;2023-08-01T08:59:06;3.38;;;0.98;;
35971;SDS011;22052;0.000;0.000;2023-08-01T09:01:33;2.45;;;0.93;;
35971;SDS011;22052;0.000;0.000;2023-08-01T09:03:59;6.25;;;1.27;;
35971;SDS011;22052;0.000;0.000;2023-08-01T09:06:29;4.82;;;1.08;;
35971;SDS011;22052;0.000;0.000;2023-08-01T09:09:01;3.05;;;1.10;;
35971;SDS011;22052;0.000;0.000;2023-08-01T09:11:29;2.35;;;0.93;;
35971;SDS011;22052;0.000;0.000;2023-08-01T09:13:56;3.83;;;1.08;;
35971;SDS011;22052;0.000;0.000;2023-08-01T09:16:22;2.50;;;0.90;;
35971;SDS011;22052;0.000;0.000;2023-08-01T09:18:51;3.70;;;0.80;;
35971;SDS011;22052;0.000;0.000;2023-08-01T09:21:21;3.30;;;0.80;;
35971;SDS011;22052;0.000;0.000;2023-08-01T09:23:48;4.00;;;1.10;;
35971;SDS011;22052;0.000;0.000;2023-08-01T09:26:14;3.95;;;1.02;;
35971;SDS011;22052;0.000;0.000;2023-08-01T09:28:40;2.97;;;1.10;;
35971;SDS011;22052;0.000;0.000;2023-08-01T09:31:07;3.47;;;1.15;;
35971;SDS011;22052;0.000;0.000;2023-08-01T09:33:39;2.85;;;1.05;;
35971;SDS011;22052;0.000;0.000;2023-08-01T09:36:09;6.22;;;1.20;;
35971;SDS011;22052;0.000;0.000;2023-08-01T09:38:36;4.30;;;1.20;;
35971;SDS011;22052;0.000;0.000;2023-08-01T09:41:05;3.08;;;1.30;;
35971;SDS011;22052;0.000;0.000;2023-08-01T09:43:34;5.85;;;1.30;;
35971;SDS011;22052;0.000;0.000;2023-08-01T09:46:01;4.88;;;1.05;;
35971;SDS011;22052;0.000;0.000;2023-08-01T09:48:28;3.83;;;0.90;;
35971;SDS011;22052;0.000;0.000;2023-08-01T09:51:04;4.85;;;1.30;;
35971;SDS011;22052;0.000;0.000;2023-08-01T09:53:31;2.63;;;1.05;;
35971;SDS011;22052;0.000;0.000;2023-08-01T09:55:59;3.15;;;1.10;;
35971;SDS011;22052;0.000;0.000;2023-08-01T09:58:26;5.28;;;1.35;;
35971;SDS011;22052;0.000;0.000;2023-08-01T10:00:54;3.50;;;1.27;;
35971;SDS011;22052;0.000;0.000;2023-08-01T10:03:20;13.18;;;1.50;;
35971;SDS011;22052;0.000;0.000;2023-08-01T10:05:47;4.93;;;1.40;;
35971;SDS011;22052;0.000;0.000;2023-08-01T10:08:16;3.88;;;1.20;;
35971;SDS011;22052;0.000;0.000;2023-08-01T10:10:43;3.85;;;1.20;;
35971;SDS011;22052;0.000;0.000;2023-08-01T10:13:10;4.03;;;1.30;;
35971;SDS011;22052;0.000;0.000;2023-08-01T10:15:38;5.22;;;1.23;;
35971;SDS011;22052;0.000;0.000;2023-08-01T10:18:05;4.60;;;1.45;;
35971;SDS011;22052;0.000;0.000;2023-08-01T10:20:31;7.88;;;1.38;;
35971;SDS011;22052;0.000;0.000;2023-08-01T10:22:58;4.43;;;1.20;;
35971;SDS011;22052;0.000;0.000;2023-08-01T10:25:24;3.58;;;1.45;;
35971;SDS011;22052;0.000;0.000;2023-08-01T10:28:01;4.10;;;1.10;;
35971;SDS011;22052;0.000;0.000;2023-08-01T10:30:27;5.35;;;1.30;;
35971;SDS011;22052;0.000;0.000;2023-08-01T10:32:54;6.45;;;1.42;;
35971;SDS011;22052;0.000;0.000;2023-08-01T10:35:42;4.95;;;1.10;;
35971;SDS011;22052;0.000;0.000;2023-08-01T10:38:09;4.75;;;1.50;;
35971;SDS011;22052;0.000;0.000;2023-08-01T10:40:37;4.97;;;1.40;;
35971;SDS011;22052;0.000;0.000;2023-08-01T10:43:03;6.25;;;1.45;;
35971;SDS011;22052;0.000;0.000;2023-08-01T10:45:29;3.67;;;1.23;;
35971;SDS011;22052;0.000;0.000;2023-08-01T10:48:11;3.20;;;1.10;;
35971;SDS011;22052;0.000;0.000;2023-08-01T10:50:37;4.00;;;1.10;;
35971;SDS011;22052;0.000;0.000;2023-08-01T10:53:08;5.35;;;1.33;;
35971;SDS011;22052;0.000;0.000;2023-08-01T10:55:38;4.28;;;1.27;;
35971;SDS011;22052;0.000;0.000;2023-08-01T10:58:04;5.78;;;1.58;;
35971;SDS011;22052;0.000;0.000;2023-08-01T11:00:31;3.22;;;1.00;;
35971;SDS011;22052;0.000;0.000;2023-08-01T11:02:57;7.47;;;1.60;;
35971;SDS011;22052;0.000;0.000;2023-08-01T11:05:23;3.28;;;1.08;;
35971;SDS011;22052;0.000;0.000;2023-08-01T11:07:54;6.05;;;1.13;;
35971;SDS011;22052;0.000;0.000;2023-08-01T11:10:21;4.93;;;1.20;;
35971;SDS011;22052;0.000;0.000;2023-08-01T11:12:47;5.47;;;1.73;;
35971;SDS011;22052;0.000;0.000;2023-08-01T11:15:14;5.97;;;1.13;;
35971;SDS011;22052;0.000;0.000;2023-08-01T11:17:41;5.50;;;1.30;;
35971;SDS011;22052;0.000;0.000;2023-08-01T11:20:08;3.88;;;1.30;;
35971;SDS011;22052;0.000;0.000;2023-08-01T11:22:35;3.78;;;1.30;;
35971;SDS011;22052;0.000;0.000;2023-08-01T11:25:01;6.43;;;1.50;;
35971;SDS011;22052;0.000;0.000;2023-08-01T11:27:27;3.95;;;1.42;;
35971;SDS011;22052;0.000;0.000;2023-08-01T11:29:54;5.05;;;1.52;;
35971;SDS011;22052;0.000;0.000;2023-08-01T11:32:20;6.40;;;1.30;;
35971;SDS011;22052;0.000;0.000;2023-08-01T11:34:46;5.07;;;1.20;;
35971;SDS011;22052;0.000;0.000;2023-08-01T11:37:13;4.15;;;1.40;;
35971;SDS011;22052;0.000;0.000;2023-08-01T11:39:40;7.90;;;1.48;;
35971;SDS011;22052;0.000;0.000;2023-08-01T11:42:06;3.75;;;1.33;;
35971;SDS011;22052;0.000;0.000;2023-08-01T11:44:33;8.40;;;1.65;;
35971;SDS011;22052;0.000;0.000;2023-08-01T11:46:59;5.38;;;1.35;;
35971;SDS011;22052;0.000;0.000;2023-08-01T11:49:25;2.55;;;1.30;;
35971;SDS011;22052;0.000;0.000;2023-08-01T11:51:51;6.40;;;1.10;;
35971;SDS011;22052;0.000;0.000;2023-08-01T11:54:17;4.97;;;1.25;;
35971;SDS011;22052;0.000;0.000;2023-08-01T11:56:43;4.88;;;1.50;;
35971;SDS011;22052;0.000;0.000;2023-08-01T12:01:42;4.15;;;1.20;;
35971;SDS011;22052;0.000;0.000;2023-08-01T12:04:09;4.90;;;1.45;;
35971;SDS011;22052;0.000;0.000;2023-08-01T12:06:35;4.05;;;1.35;;
35971;SDS011;22052;0.000;0.000;2023-08-01T12:09:08;4.45;;;1.40;;
35971;SDS011;22052;0.000;0.000;2023-08-01T12:11:35;5.68;;;1.50;;
35971;SDS011;22052;0.000;0.000;2023-08-01T12:16:30;4.57;;;1.33;;
35971;SDS011;22052;0.000;0.000;2023-08-01T12:18:57;4.18;;;1.20;;
35971;SDS011;22052;0.000;0.000;2023-08-01T12:21:23;3.22;;;1.20;;
35971;SDS011;22052;0.000;0.000;2023-08-01T12:23:49;4.82;;;1.35;;
35971;SDS011;22052;0.000;0.000;2023-08-01T12:26:15;5.95;;;1.50;;
35971;SDS011;22052;0.000;0.000;2023-08-01T12:28:41;5.30;;;1.70;;
35971;SDS011;22052;0.000;0.000;2023-08-01T12:31:07;5.68;;;1.30;;
35971;SDS011;22052;0.000;0.000;2023-08-01T12:33:33;6.70;;;1.25;;
35971;SDS011;22052;0.000;0.000;2023-08-01T12:36:00;5.10;;;1.50;;
35971;SDS011;22052;0.000;0.000;2023-08-01T12:38:26;4.82;;;1.20;;
35971;SDS011;22052;0.000;0.000;2023-08-01T12:40:52;4.93;;;1.50;;
35971;SDS011;22052;0.000;0.000;2023-08-01T12:43:18;8.90;;;1.60;;
35971;SDS011;22052;0.000;0.000;2023-08-01T12:45:46;5.63;;;1.75;;
35971;SDS011;22052;0.000;0.000;2023-08-01T12:48:13;5.93;;;1.42;;
35971;SDS011;22052;0.000;0.000;2023-08-01T12:50:43;8.45;;;1.50;;
35971;SDS011;22052;0.000;0.000;2023-08-01T12:53:09;6.57;;;1.52;;
35971;SDS011;22052;0.000;0.000;2023-08-01T12:55:35;3.40;;;1.33;;
35971;SDS011;22052;0.000;0.000;2023-08-01T12:58:01;7.10;;;1.42;;
35971;SDS011;22052;0.000;0.000;2023-08-01T13:00:29;4.88;;;1.25;;
35971;SDS011;22052;0.000;0.000;2023-08-01T13:02:55;7.13;;;1.50;;
35971;SDS011;22052;0.000;0.000;2023-08-01T13:05:21;3.53;;;1.30;;
35971;SDS011;22052;0.000;0.000;2023-08-01T13:07:47;8.15;;;1.60;;
35971;SDS011;22052;0.000;0.000;2023-08-01T13:10:15;4.75;;;1.50;;
35971;SDS011;22052;0.000;0.000;2023-08-01T13:12:41;6.95;;;1.30;;
35971;SDS011;22052;0.000;0.000;2023-08-01T13:15:07;6.88;;;1.52;;
35971;SDS011;22052;0.000;0.000;2023-08-01T13:17:33;5.97;;;1.25;;
35971;SDS011;22052;0.000;0.000;2023-08-01T13:20:00;7.68;;;1.50;;
35971;SDS011;22052;0.000;0.000;2023-08-01T13:22:26;6.25;;;1.42;;
35971;SDS011;22052;0.000;0.000;2023-08-01T13:24:52;5.28;;;1.50;;
35971;SDS011;22052;0.000;0.000;2023-08-01T13:27:18;7.45;;;1.50;;
35971;SDS011;22052;0.000;0.000;2023-08-01T13:29:44;5.43;;;1.60;;
35971;SDS011;22052;0.000;0.000;2023-08-01T13:32:10;4.15;;;1.30;;
35971;SDS011;22052;0.000;0.000;2023-08-01T13:34:36;4.47;;;1.80;;
35971;SDS011;22052;0.000;0.000;2023-08-01T13:37:03;8.82;;;1.60;;
35971;SDS011;22052;0.000;0.000;2023-08-01T13:39:29;6.95;;;1.42;;
35971;SDS011;22052;0.000;0.000;2023-08-01T13:41:55;3.78;;;1.40;;
35971;SDS011;22052;0.000;0.000;2023-08-01T13:44:21;3.67;;;1.55;;
35971;SDS011;22052;0.000;0.000;2023-08-01T13:46:47;9.27;;;1.80;;
35971;SDS011;22052;0.000;0.000;2023-08-01T13:49:13;7.97;;;1.48;;
35971;SDS011;22052;0.000;0.000;2023-08-01T13:51:39;6.10;;;1.40;;
35971;SDS011;22052;0.000;0.000;2023-08-01T13:54:05;4.07;;;1.35;;
35971;SDS011;22052;0.000;0.000;2023-08-01T13:56:32;5.28;;;1.65;;
35971;SDS011;22052;0.000;0.000;2023-08-01T13:58:58;9.73;;;1.60;;
35971;SDS011;22052;0.000;0.000;2023-08-01T14:01:24;7.18;;;1.63;;
35971;SDS011;22052;0.000;0.000;2023-08-01T14:03:50;7.60;;;1.52;;
35971;SDS011;22052;0.000;0.000;2023-08-01T14:06:16;5.25;;;1.10;;
35971;SDS011;22052;0.000;0.000;2023-08-01T14:08:42;4.78;;;1.48;;
35971;SDS011;22052;0.000;0.000;2023-08-01T14:11:09;5.88;;;1.30;;
35971;SDS011;22052;0.000;0.000;2023-08-01T14:13:35;6.97;;;1.77;;
35971;SDS011;22052;0.000;0.000;2023-08-01T14:16:02;4.38;;;1.33;;
35971;SDS011;22052;0.000;0.000;2023-08-01T14:18:29;6.20;;;1.67;;
35971;SDS011;22052;0.000;0.000;2023-08-01T14:20:55;6.00;;;1.85;;
35971;SDS011;22052;0.000;0.000;2023-08-01T14:23:21;9.82;;;2.00;;
35971;SDS011;22052;0.000;0.000;2023-08-01T14:25:48;6.75;;;1.67;;
35971;SDS011;22052;0.000;0.000;2023-08-01T14:28:14;4.85;;;1.30;;
35971;SDS011;22052;0.000;0.000;2023-08-01T14:30:41;3.63;;;1.30;;
35971;SDS011;22052;0.000;0.000;2023-08-01T14:33:07;3.35;;;1.58;;
35971;SDS011;22052;0.000;0.000;2023-08-01T14:35:34;4.32;;;1.67;;
35971;SDS011;22052;0.000;0.000;2023-08-01T14:38:00;5.03;;;1.70;;
35971;SDS011;22052;0.000;0.000;2023-08-01T14:40:27;6.60;;;1.90;;
35971;SDS011;22052;0.000;0.000;2023-08-01T14:42:53;4.32;;;1.48;;
35971;SDS011;22052;0.000;0.000;2023-08-01T14:45:20;6.63;;;1.60;;
35971;SDS011;22052;0.000;0.000;2023-08-01T14:47:46;7.05;;;1.60;;
35971;SDS011;22052;0.000;0.000;2023-08-01T14:50:12;7.70;;;1.80;;
35971;SDS011;22052;0.000;0.000;2023-08-01T14:52:39;7.38;;;1.73;;
35971;SDS011;22052;0.000;0.000;2023-08-01T14:55:05;7.03;;;1.63;;
35971;SDS011;22052;0.000;0.000;2023-08-01T14:57:31;6.55;;;1.60;;
35971;SDS011;22052;0.000;0.000;2023-08-01T14:59:58;4.13;;;1.67;;
35971;SDS011;22052;0.000;0.000;2023-08-01T15:02:24;5.65;;;1.65;;